Time;durP1;ratioP1;P1;durP2;ratioP2;P2;SDS_P1;SDS_P2;PMS_P1;PMS_P2;Temp;Humidity;BMP_temperature;BMP_pressure;BME280_temperature;BME280_humidity;BME280_pressure;Samples;Min_cycle;Max_cycle;Signal;HPM_P1;HPM_P2
2022/01/13 00:02:10;;;;;;;54.42;20.52;;;-6.00;99.90;;;;;;5740214;23;20022;-79
2022/01/13 00:04:36;;;;;;;49.65;20.45;;;-6.00;99.90;;;;;;4996458;28;20046;-79
2022/01/13 00:07:02;;;;;;;55.05;22.30;;;-6.00;99.90;;;;;;4979782;28;20023;-81
2022/01/13 00:09:28;;;;;;;54.28;21.75;;;-6.10;99.90;;;;;;4979834;28;20011;-80
2022/01/13 00:11:56;;;;;;;56.90;22.67;;;-6.10;99.90;;;;;;4996356;28;20045;-81
2022/01/13 00:14:26;;;;;;;61.72;25.77;;;-6.20;99.90;;;;;;4978739;28;20027;-79
2022/01/13 00:19:49;;;;;;;85.28;33.20;;;-6.30;99.90;;;;;;4995446;28;20082;-79
2022/01/13 00:22:27;;;;;;;71.20;30.27;;;-6.40;99.90;;;;;;4973096;29;20035;-80
2022/01/13 00:24:57;;;;;;;71.05;30.38;;;-6.50;99.90;;;;;;4951771;29;20028;-79
2022/01/13 00:27:25;;;;;;;87.43;36.15;;;-6.50;99.90;;;;;;4949049;29;20117;-79
2022/01/13 00:29:54;;;;;;;79.90;33.20;;;-6.60;99.90;;;;;;4948170;29;20023;-79
2022/01/13 00:32:22;;;;;;;90.07;36.75;;;-6.70;99.90;;;;;;4962469;28;20027;-79
2022/01/13 00:34:48;;;;;;;95.80;40.40;;;-6.60;99.90;;;;;;4964886;29;20074;-78
2022/01/13 00:37:14;;;;;;;80.10;33.90;;;-6.70;99.90;;;;;;4969225;29;20031;-80
2022/01/13 00:39:40;;;;;;;75.88;29.58;;;-6.60;99.90;;;;;;4975893;28;20019;-80
2022/01/13 00:42:06;;;;;;;68.50;28.23;;;-6.70;99.90;;;;;;4957724;29;20030;-78
2022/01/13 00:44:37;;;;;;;88.03;33.65;;;-6.70;99.90;;;;;;4974702;28;20920;-80
2022/01/13 00:47:05;;;;;;;72.45;28.08;;;-6.70;99.90;;;;;;4956593;29;20031;-79
2022/01/13 00:49:31;;;;;;;58.42;24.00;;;-6.70;99.90;;;;;;4967905;29;20677;-79
2022/01/13 00:51:57;;;;;;;61.15;25.13;;;-6.80;99.90;;;;;;4951305;29;20035;-79
2022/01/13 00:54:23;;;;;;;70.15;27.90;;;-6.80;99.90;;;;;;4969283;29;20027;-78
2022/01/13 00:56:49;;;;;;;91.53;32.58;;;-6.80;99.90;;;;;;4969988;28;20019;-80
2022/01/13 00:59:15;;;;;;;89.40;35.33;;;-6.90;99.90;;;;;;4955063;29;20091;-79
2022/01/13 01:01:46;;;;;;;94.47;34.75;;;-6.80;99.90;;;;;;4962225;28;20034;-78
2022/01/13 01:04:12;;;;;;;72.18;26.40;;;-6.80;99.90;;;;;;4969990;29;20222;-79
2022/01/13 01:06:38;;;;;;;58.00;24.35;;;-6.90;99.90;;;;;;4970676;29;20020;-79
2022/01/13 01:09:05;;;;;;;56.40;23.45;;;-6.90;99.90;;;;;;4960470;29;20035;-79
2022/01/13 01:11:31;;;;;;;62.33;24.60;;;-6.90;99.90;;;;;;4958534;28;20031;-78
2022/01/13 01:13:59;;;;;;;71.53;27.67;;;-6.90;99.90;;;;;;4960307;29;20070;-79
2022/01/13 01:16:26;;;;;;;75.75;28.42;;;-6.90;99.90;;;;;;4972934;28;20104;-80
2022/01/13 01:19:00;;;;;;;69.90;27.77;;;-6.90;99.90;;;;;;4956637;29;20038;-80
2022/01/13 01:24:11;;;;;;;73.13;29.00;;;-6.90;99.90;;;;;;4967309;29;20042;-79
2022/01/13 01:29:20;;;;;;;62.15;24.27;;;-7.00;99.90;;;;;;4962385;29;20020;-79
2022/01/13 01:31:49;;;;;;;52.58;22.60;;;-7.00;99.90;;;;;;4960742;28;20046;-79
2022/01/13 01:36:49;;;;;;;51.78;22.58;;;-7.10;99.90;;;;;;4961460;29;20063;-80
2022/01/13 01:39:15;;;;;;;56.13;23.80;;;-7.10;99.90;;;;;;4962231;28;20369;-79
2022/01/13 01:41:48;;;;;;;49.28;21.30;;;-7.10;99.90;;;;;;4963827;28;20082;-77
2022/01/13 01:44:19;;;;;;;62.50;23.45;;;-7.10;99.90;;;;;;4964785;29;20062;-79
2022/01/13 01:46:46;;;;;;;50.90;20.73;;;-7.10;99.90;;;;;;4963624;29;20031;-79
2022/01/13 01:49:21;;;;;;;56.22;23.00;;;-7.20;99.90;;;;;;4965427;28;20032;-79
2022/01/13 01:51:53;;;;;;;59.97;23.55;;;-7.20;99.90;;;;;;4965636;28;20039;-80
2022/01/13 01:54:19;;;;;;;58.72;23.65;;;-7.20;99.90;;;;;;4963600;29;20047;-78
2022/01/13 01:56:45;;;;;;;51.35;24.08;;;-7.20;99.90;;;;;;4966715;29;20611;-78
2022/01/13 01:59:18;;;;;;;55.05;22.55;;;-7.20;99.90;;;;;;4964887;29;20042;-79
2022/01/13 02:01:46;;;;;;;49.42;21.98;;;-7.20;99.90;;;;;;4965668;29;20159;-78
2022/01/13 02:04:12;;;;;;;53.55;22.83;;;-7.20;99.90;;;;;;4967122;29;20110;-78
2022/01/13 02:06:38;;;;;;;52.92;21.30;;;-7.30;99.90;;;;;;4950335;29;20042;-79
2022/01/13 02:09:06;;;;;;;50.40;23.08;;;-7.20;99.90;;;;;;4949771;29;20054;-79
2022/01/13 02:11:42;;;;;;;49.65;22.20;;;-7.20;99.90;;;;;;4946645;29;20395;-79
2022/01/13 02:16:57;;;;;;;53.60;22.40;;;-7.30;99.90;;;;;;4961302;29;20039;-78
2022/01/13 02:19:24;;;;;;;52.05;22.73;;;-7.30;99.90;;;;;;4942324;29;20612;-79
2022/01/13 02:21:51;;;;;;;60.58;25.83;;;-7.30;99.90;;;;;;4943955;29;20023;-79
2022/01/13 02:24:17;;;;;;;59.67;24.20;;;-7.30;99.90;;;;;;4952910;29;20041;-80
2022/01/13 02:26:43;;;;;;;57.45;24.13;;;-7.30;99.90;;;;;;4958487;29;20484;-80
2022/01/13 02:29:09;;;;;;;64.00;27.63;;;-7.30;99.90;;;;;;4959210;28;20063;-79
2022/01/13 02:31:35;;;;;;;66.63;26.77;;;-7.40;99.90;;;;;;4963474;29;20476;-79
2022/01/13 02:34:00;;;;;;;55.30;23.23;;;-7.40;99.90;;;;;;4967134;28;20038;-80
2022/01/13 02:36:30;;;;;;;57.40;24.42;;;-7.40;99.90;;;;;;4973533;29;20046;-80
2022/01/13 02:38:57;;;;;;;60.38;25.98;;;-7.40;99.90;;;;;;4957135;29;20035;-78
2022/01/13 02:41:24;;;;;;;59.42;26.40;;;-7.40;99.90;;;;;;4974954;29;20610;-80
2022/01/13 02:43:55;;;;;;;81.22;31.52;;;-7.40;99.90;;;;;;4974940;29;20022;-80
2022/01/13 02:46:55;;;;;;;111.00;42.58;;;-7.50;99.90;;;;;;4958447;29;20039;-80
2022/01/13 02:49:19;;;;;;;71.53;31.08;;;-7.40;99.90;;;;;;4980647;28;20007;-81
2022/01/13 02:51:47;;;;;;;74.15;29.63;;;-7.40;99.90;;;;;;4973466;28;20035;-79
2022/01/13 02:54:13;;;;;;;64.03;26.40;;;-7.30;99.90;;;;;;4956334;29;20065;-79
2022/01/13 02:56:39;;;;;;;59.15;23.95;;;-7.30;99.90;;;;;;4969135;29;20411;-80
2022/01/13 02:59:06;;;;;;;58.47;23.92;;;-7.20;99.90;;;;;;4974214;29;20042;-80
2022/01/13 03:01:34;;;;;;;59.88;25.75;;;-7.20;99.90;;;;;;4957932;29;20084;-80
2022/01/13 03:04:04;;;;;;;63.92;23.70;;;-7.10;99.90;;;;;;4952170;29;20074;-79
2022/01/13 03:06:36;;;;;;;55.67;23.15;;;-7.00;99.90;;;;;;4968856;29;20155;-81
2022/01/13 03:09:04;;;;;;;59.63;24.35;;;-7.10;99.90;;;;;;4971907;29;20031;-80
2022/01/13 03:11:34;;;;;;;56.67;23.52;;;-7.00;99.90;;;;;;4973940;29;20054;-80
2022/01/13 03:14:00;;;;;;;53.78;24.98;;;-7.00;99.90;;;;;;4973484;28;20029;-80
2022/01/13 03:16:26;;;;;;;60.08;24.77;;;-7.00;99.90;;;;;;4974421;29;20040;-79
2022/01/13 03:18:52;;;;;;;53.38;22.88;;;-7.10;99.90;;;;;;4974358;29;20122;-80
2022/01/13 03:21:18;;;;;;;62.05;25.45;;;-7.10;99.90;;;;;;4963899;29;20054;-80
2022/01/13 03:23:44;;;;;;;58.05;27.27;;;-7.10;99.90;;;;;;4965866;29;20034;-80
2022/01/13 03:26:10;;;;;;;60.85;26.23;;;-7.10;99.90;;;;;;4964782;29;20034;-80
2022/01/13 03:28:50;;;;;;;56.63;24.17;;;-7.00;99.90;;;;;;4949195;28;20035;-78
2022/01/13 03:31:17;;;;;;;60.30;24.75;;;-7.10;99.90;;;;;;4949917;29;20023;-79
2022/01/13 03:33:43;;;;;;;50.33;21.38;;;-7.00;99.90;;;;;;4967617;29;20055;-79
2022/01/13 03:36:09;;;;;;;47.50;20.33;;;-6.90;99.90;;;;;;4949667;29;20047;-80
2022/01/13 03:38:35;;;;;;;49.78;20.45;;;-6.80;99.90;;;;;;4965944;29;20418;-79
2022/01/13 03:41:03;;;;;;;55.10;21.48;;;-6.50;99.90;;;;;;4948295;29;20506;-79
2022/01/13 03:43:29;;;;;;;49.22;20.23;;;-6.30;99.90;;;;;;4965433;28;20023;-80
2022/01/13 03:45:55;;;;;;;55.70;22.55;;;-6.40;99.90;;;;;;4966882;28;20023;-79
2022/01/13 03:48:21;;;;;;;72.60;26.73;;;-6.50;99.90;;;;;;4968908;29;20028;-79
2022/01/13 03:50:47;;;;;;;102.25;35.15;;;-6.50;99.90;;;;;;4975877;28;20035;-80
2022/01/13 03:54:15;;;;;;;99.50;36.75;;;-6.60;99.90;;;;;;4973506;29;20027;-79
2022/01/13 03:57:30;;;;;;;74.03;27.70;;;-6.70;99.90;;;;;;4943404;29;20039;-80
2022/01/13 04:00:15;;;;;;;78.45;31.50;;;-6.80;99.90;;;;;;4966117;29;20078;-79
2022/01/13 04:02:41;;;;;;;92.32;35.47;;;-6.90;99.90;;;;;;4965735;28;20055;-80
2022/01/13 04:05:07;;;;;;;89.97;38.90;;;-7.00;99.90;;;;;;4965046;28;20114;-80
2022/01/13 04:07:33;;;;;;;93.20;37.75;;;-7.00;99.90;;;;;;4966349;29;20027;-80
2022/01/13 04:09:58;;;;;;;79.15;33.28;;;-7.00;99.90;;;;;;4950793;28;20099;-80
2022/01/13 04:12:43;;;;;;;69.90;30.20;;;-7.00;99.90;;;;;;4969831;29;20023;-79
2022/01/13 04:15:12;;;;;;;59.58;25.08;;;-7.00;99.90;;;;;;4967290;29;20047;-80
2022/01/13 04:17:38;;;;;;;54.35;22.60;;;-7.10;99.90;;;;;;4965887;29;20023;-80
2022/01/13 04:20:04;;;;;;;54.53;21.55;;;-7.10;99.90;;;;;;4960228;28;20063;-81
2022/01/13 04:22:30;;;;;;;49.65;20.90;;;-7.10;99.90;;;;;;4968764;28;20034;-79
2022/01/13 04:24:55;;;;;;;51.10;21.05;;;-7.10;99.90;;;;;;4967537;29;20500;-80
2022/01/13 04:27:28;;;;;;;60.70;25.83;;;-7.10;99.90;;;;;;4967576;29;20050;-79
2022/01/13 04:32:39;;;;;;;60.88;27.27;;;-7.10;99.90;;;;;;4967737;29;20043;-80
2022/01/13 04:35:06;;;;;;;61.38;30.17;;;-7.10;99.90;;;;;;4966942;29;20046;-80
2022/01/13 04:37:32;;;;;;;87.13;45.15;;;-7.10;99.90;;;;;;4967372;28;20023;-80
2022/01/13 04:39:58;;;;;;;69.10;30.63;;;-7.10;99.90;;;;;;4950017;29;20033;-81
2022/01/13 04:42:29;;;;;;;72.88;29.42;;;-7.10;99.90;;;;;;4950454;29;20055;-81
2022/01/13 04:44:55;;;;;;;84.80;33.15;;;-7.20;99.90;;;;;;4967186;29;20030;-79
2022/01/13 04:47:21;;;;;;;110.72;42.05;;;-7.20;99.90;;;;;;4950210;29;20062;-80
2022/01/13 04:49:46;;;;;;;193.20;70.70;;;-7.20;99.90;;;;;;4967410;28;20038;-79
2022/01/13 04:52:12;;;;;;;133.90;45.88;;;-7.30;99.90;;;;;;4950927;29;20028;-80
2022/01/13 04:54:38;;;;;;;99.90;40.70;;;-7.30;99.90;;;;;;4966900;29;20412;-81
2022/01/13 04:59:30;;;;;;;75.97;33.47;;;-7.40;99.90;;;;;;4967593;29;20027;-79
2022/01/13 05:01:55;;;;;;;81.88;35.50;;;-7.50;99.90;;;;;;4967339;29;20051;-79
2022/01/13 05:04:22;;;;;;;82.97;35.13;;;-7.50;99.90;;;;;;4950620;29;20142;-80
2022/01/13 05:06:48;;;;;;;91.65;36.83;;;-7.50;99.90;;;;;;4967900;29;20031;-80
2022/01/13 05:09:13;;;;;;;81.05;35.20;;;-7.50;99.90;;;;;;4949659;29;20130;-80
2022/01/13 05:11:39;;;;;;;93.13;36.83;;;-7.60;99.90;;;;;;4950561;29;20047;-80
2022/01/13 05:14:05;;;;;;;83.25;34.17;;;-7.60;99.90;;;;;;4950600;29;20043;-80
2022/01/13 05:16:50;;;;;;;75.18;32.35;;;-7.60;99.90;;;;;;4952300;29;20027;-79
2022/01/13 05:19:20;;;;;;;80.55;32.47;;;-7.70;99.90;;;;;;4971514;28;20023;-80
2022/01/13 05:24:18;;;;;;;81.90;31.10;;;-7.70;99.90;;;;;;4971020;28;20118;-79
2022/01/13 05:26:44;;;;;;;67.32;27.75;;;-7.70;99.90;;;;;;4952162;29;20082;-79
2022/01/13 05:29:12;;;;;;;75.25;29.42;;;-7.70;99.90;;;;;;4969336;29;20027;-80
2022/01/13 05:31:38;;;;;;;80.38;29.67;;;-7.60;99.90;;;;;;4950336;29;20131;-78
2022/01/13 05:34:04;;;;;;;83.28;30.88;;;-7.70;99.90;;;;;;4951198;29;20503;-79
2022/01/13 05:36:30;;;;;;;65.65;25.52;;;-7.60;99.90;;;;;;4966854;28;20031;-80
2022/01/13 05:38:56;;;;;;;66.80;27.05;;;-7.60;99.90;;;;;;4967529;29;20031;-80
2022/01/13 05:41:21;;;;;;;61.78;25.33;;;-7.60;99.90;;;;;;4967888;28;20019;-80
2022/01/13 05:43:47;;;;;;;54.85;22.55;;;-7.50;99.90;;;;;;4967404;28;20027;-80
2022/01/13 05:46:13;;;;;;;53.63;22.45;;;-7.40;99.90;;;;;;4966290;29;20062;-79
2022/01/13 05:48:39;;;;;;;58.95;23.42;;;-7.40;99.90;;;;;;4968618;29;20035;-80
2022/01/13 05:51:04;;;;;;;56.00;23.98;;;-7.40;99.90;;;;;;4980050;28;20018;-80
2022/01/13 05:53:30;;;;;;;55.40;23.73;;;-7.50;99.90;;;;;;4952486;29;20115;-80
2022/01/13 05:55:56;;;;;;;60.42;24.45;;;-7.50;99.90;;;;;;4971233;28;20042;-80
2022/01/13 05:58:22;;;;;;;61.25;24.30;;;-7.50;99.90;;;;;;4969833;28;20041;-80
2022/01/13 06:00:47;;;;;;;56.08;24.65;;;-7.50;99.90;;;;;;4953603;29;20038;-79
2022/01/13 06:03:14;;;;;;;57.78;25.20;;;-7.60;99.90;;;;;;4954937;29;20058;-79
2022/01/13 06:05:39;;;;;;;77.25;30.98;;;-7.60;99.90;;;;;;4972543;29;20030;-80
2022/01/13 06:08:05;;;;;;;82.85;35.15;;;-7.50;99.90;;;;;;4971166;29;20051;-80
2022/01/13 06:10:31;;;;;;;89.00;35.35;;;-7.70;99.90;;;;;;4971789;29;20090;-80
2022/01/13 06:12:57;;;;;;;106.82;39.90;;;-7.60;99.90;;;;;;4971735;28;20019;-80
2022/01/13 06:15:24;;;;;;;111.75;42.65;;;-7.70;99.90;;;;;;4971266;29;20027;-80
2022/01/13 06:17:53;;;;;;;105.28;39.55;;;-7.70;99.90;;;;;;4970868;29;20071;-80
2022/01/13 06:20:20;;;;;;;113.43;42.15;;;-7.60;99.90;;;;;;4970267;28;20024;-79
2022/01/13 06:22:50;;;;;;;122.25;44.50;;;-7.60;99.90;;;;;;4973724;29;20050;-80
2022/01/13 06:25:17;;;;;;;111.07;42.95;;;-7.70;99.90;;;;;;4971989;29;20035;-81
2022/01/13 06:27:43;;;;;;;124.60;52.20;;;-7.70;99.90;;;;;;4969109;28;20083;-79
2022/01/13 06:30:14;;;;;;;140.95;61.63;;;-7.50;99.90;;;;;;4971305;28;20043;-80
2022/01/13 06:32:40;;;;;;;105.07;42.17;;;-7.50;99.90;;;;;;4977968;29;20038;-79
2022/01/13 06:35:06;;;;;;;104.63;43.75;;;-7.50;99.90;;;;;;4974560;29;20479;-80
2022/01/13 06:37:32;;;;;;;99.50;42.80;;;-7.50;99.90;;;;;;4968167;28;20475;-80
2022/01/13 06:40:00;;;;;;;88.70;37.35;;;-7.60;99.90;;;;;;4952458;29;20031;-80
2022/01/13 06:42:26;;;;;;;82.15;34.72;;;-7.50;99.90;;;;;;4970216;29;20023;-80
2022/01/13 06:44:51;;;;;;;95.50;41.85;;;-7.60;99.90;;;;;;4952070;29;20106;-80
2022/01/13 06:47:17;;;;;;;131.93;52.60;;;-7.50;99.90;;;;;;4952518;29;20480;-80
2022/01/13 06:49:43;;;;;;;125.68;52.42;;;-7.50;99.90;;;;;;4952524;29;20256;-80
2022/01/13 06:52:09;;;;;;;151.07;62.97;;;-7.40;99.90;;;;;;4970163;29;20027;-80
2022/01/13 06:54:35;;;;;;;129.23;57.47;;;-7.50;99.90;;;;;;4968909;29;20538;-79
2022/01/13 06:57:01;;;;;;;133.38;51.28;;;-7.40;99.90;;;;;;4968985;29;20035;-79
2022/01/13 06:59:27;;;;;;;116.57;45.38;;;-7.30;99.90;;;;;;4970263;29;20051;-80
2022/01/13 07:01:53;;;;;;;100.25;41.25;;;-7.30;99.90;;;;;;4953379;29;20091;-80
2022/01/13 07:04:19;;;;;;;124.50;48.58;;;-7.20;99.90;;;;;;4969941;29;20163;-79
2022/01/13 07:06:45;;;;;;;132.95;51.17;;;-7.20;99.90;;;;;;4953207;29;20033;-79
2022/01/13 07:09:14;;;;;;;125.25;50.40;;;-7.10;99.90;;;;;;4968545;28;20034;-80
2022/01/13 07:11:40;;;;;;;135.07;51.42;;;-7.10;99.90;;;;;;4968620;28;20027;-79
2022/01/13 07:14:07;;;;;;;141.07;55.03;;;-6.90;99.90;;;;;;4953171;29;20113;-79
2022/01/13 07:16:33;;;;;;;134.25;53.70;;;-6.70;99.90;;;;;;4968278;29;20046;-80
2022/01/13 07:19:00;;;;;;;123.25;49.05;;;-6.60;99.90;;;;;;4969425;29;20027;-78
2022/01/13 07:21:27;;;;;;;166.43;64.38;;;-6.20;99.90;;;;;;4960640;28;20035;-81
2022/01/13 07:23:54;;;;;;;176.18;69.07;;;-5.70;99.90;;;;;;4974854;28;20055;-79
2022/01/13 07:26:20;;;;;;;186.90;79.35;;;-5.50;99.90;;;;;;4970596;28;20079;-81
2022/01/13 07:28:46;;;;;;;179.80;69.85;;;-5.20;99.90;;;;;;4954662;29;20027;-80
2022/01/13 07:31:14;;;;;;;168.82;68.78;;;-4.90;99.90;;;;;;4969388;28;20232;-81
2022/01/13 07:33:40;;;;;;;149.90;62.90;;;-4.70;99.90;;;;;;4970619;29;20023;-80
2022/01/13 07:36:06;;;;;;;156.05;65.97;;;-4.40;99.90;;;;;;4970833;28;20027;-80
2022/01/13 07:38:32;;;;;;;136.05;62.22;;;-4.20;99.90;;;;;;4972111;28;20513;-80
2022/01/13 07:40:58;;;;;;;;;;;-3.90;99.90;;;;;;4970934;29;20035;-81
2022/01/13 07:43:25;;;;;;;142.10;58.60;;;-3.70;99.90;;;;;;4970798;29;20371;-81
2022/01/13 07:45:51;;;;;;;125.18;54.92;;;-3.60;99.90;;;;;;4969312;28;20033;-80
2022/01/13 07:48:17;;;;;;;166.70;76.78;;;-3.40;99.90;;;;;;4969357;29;20140;-79
2022/01/13 07:50:43;;;;;;;;;;;-3.20;99.90;;;;;;4970732;29;20027;-80
2022/01/13 07:53:09;;;;;;;121.03;52.88;;;-3.10;99.90;;;;;;4953341;29;19907;-80
2022/01/13 07:55:35;;;;;;;133.13;53.53;;;-2.80;99.90;;;;;;4969992;29;20424;-80
2022/01/13 07:58:01;;;;;;;;;;;-2.60;99.90;;;;;;4968407;29;20024;-81
2022/01/13 08:00:27;;;;;;;91.80;41.25;;;-2.50;99.90;;;;;;4952589;29;19910;-81
2022/01/13 08:02:53;;;;;;;;;;;-2.50;99.90;;;;;;4970205;28;20039;-81
2022/01/13 08:05:18;;;;;;;89.03;40.22;;;-2.40;99.90;;;;;;4952385;29;20005;-81
2022/01/13 08:07:44;;;;;;;;;;;-2.30;99.90;;;;;;4969331;29;20039;-81
2022/01/13 08:10:10;;;;;;;81.70;38.05;;;-2.40;99.90;;;;;;4952500;29;19914;-79
2022/01/13 08:12:37;;;;;;;95.68;44.65;;;-2.40;99.90;;;;;;4968805;29;20444;-80
2022/01/13 08:15:07;;;;;;;93.30;42.03;;;-2.20;99.90;;;;;;4966653;29;20027;-80
2022/01/13 08:20:17;;;;;;;70.90;34.17;;;-1.70;99.90;;;;;;4970100;29;20037;-80
2022/01/13 08:22:42;;;;;;;;;;;-1.50;99.90;;;;;;4968649;29;20094;-81
2022/01/13 08:25:09;;;;;;;49.50;24.10;;;-1.40;99.90;;;;;;4952591;29;20460;-81
2022/01/13 08:27:35;;;;;;;46.90;22.73;;;-1.20;99.90;;;;;;4970290;29;20075;-80
2022/01/13 08:30:01;;;;;;;;;;;-0.90;99.90;;;;;;4955116;29;20023;-81
2022/01/13 08:32:27;;;;;;;53.25;23.08;;;-0.60;99.90;;;;;;4969159;28;19906;-81
2022/01/13 08:34:52;;;;;;;;;;;-0.70;99.90;;;;;;4972057;29;20039;-80
2022/01/13 08:37:18;;;;;;;45.30;22.70;;;-0.60;99.90;;;;;;4970836;29;19949;-80
2022/01/13 08:39:45;;;;;;;45.92;23.77;;;-0.40;99.90;;;;;;4971690;29;20110;-79
2022/01/13 08:42:12;;;;;;;51.90;24.33;;;-0.30;99.90;;;;;;4969906;28;20031;-80
2022/01/13 08:44:38;;;;;;;48.50;25.02;;;-0.20;99.60;;;;;;4967502;29;20047;-82
2022/01/13 08:47:04;;;;;;;;;;;0.00;99.10;;;;;;4970315;29;20027;-80
2022/01/13 08:49:30;;;;;;;47.53;23.88;;;0.10;97.90;;;;;;4966625;29;19906;-80
2022/01/13 08:51:56;;;;;;;;;;;0.20;97.90;;;;;;4970095;28;20066;-80
2022/01/13 08:54:22;;;;;;;50.55;26.45;;;0.40;95.70;;;;;;4968039;29;19906;-79
2022/01/13 08:56:48;;;;;;;61.72;29.05;;;0.40;96.60;;;;;;4969300;29;20039;-80
2022/01/13 08:59:14;;;;;;;67.38;31.98;;;0.40;97.50;;;;;;4967989;29;20015;-79
2022/01/13 09:01:40;;;;;;;;;;;0.40;96.30;;;;;;4969313;29;20502;-81
2022/01/13 09:04:06;;;;;;;68.97;34.63;;;0.30;97.10;;;;;;4967261;29;20523;-81
2022/01/13 09:06:32;;;;;;;69.25;34.35;;;0.10;97.70;;;;;;4967098;29;20027;-80
2022/01/13 09:08:58;;;;;;;;;;;0.20;95.60;;;;;;4950430;29;20098;-82
2022/01/13 09:11:23;;;;;;;71.90;34.47;;;0.00;95.80;;;;;;4949680;29;19907;-82
2022/01/13 09:13:56;;;;;;;;;;;-0.10;97.10;;;;;;4954435;29;20031;-80
2022/01/13 09:16:24;;;;;;;55.83;28.52;;;-0.20;98.10;;;;;;4969139;29;19923;-79
2022/01/13 09:21:29;;;;;;;58.78;29.48;;;0.00;97.70;;;;;;4965277;29;20050;-80
2022/01/13 09:23:55;;;;;;;67.75;33.13;;;-0.10;97.20;;;;;;4965218;28;20051;-80
2022/01/13 09:26:21;;;;;;;67.43;34.47;;;-0.10;97.00;;;;;;4963788;28;20023;-80
2022/01/13 09:28:46;;;;;;;;;;;0.00;97.30;;;;;;4947093;28;20502;-80
2022/01/13 09:31:12;;;;;;;66.32;33.10;;;0.10;97.90;;;;;;4946451;28;19946;-80
2022/01/13 09:33:38;;;;;;;;;;;0.20;97.50;;;;;;4964257;29;20557;-78
2022/01/13 09:36:06;;;;;;;75.05;35.00;;;0.00;96.80;;;;;;4959451;29;19943;-80
2022/01/13 09:38:33;;;;;;;76.60;36.67;;;0.10;96.80;;;;;;4961245;29;20042;-79
2022/01/13 09:40:58;;;;;;;84.88;39.40;;;0.00;97.10;;;;;;4946412;29;20046;-79
2022/01/13 09:43:25;;;;;;;;;;;0.00;97.30;;;;;;4947572;28;20023;-80
2022/01/13 09:45:52;;;;;;;88.60;40.40;;;0.00;97.00;;;;;;4960481;29;20335;-81
2022/01/13 09:48:18;;;;;;;80.60;39.13;;;0.00;98.10;;;;;;4962817;29;20587;-80
2022/01/13 09:50:46;;;;;;;87.20;42.17;;;0.10;97.80;;;;;;4960877;29;20067;-80
2022/01/13 09:53:16;;;;;;;79.72;39.78;;;0.10;97.80;;;;;;4962767;29;20078;-79
2022/01/13 09:55:44;;;;;;;74.55;37.70;;;0.10;98.10;;;;;;4961168;29;20063;-80
2022/01/13 09:58:11;;;;;;;81.85;39.08;;;0.10;95.70;;;;;;4960968;29;20028;-79
2022/01/13 10:00:38;;;;;;;84.47;40.30;;;0.20;96.70;;;;;;4959893;29;20062;-78
2022/01/13 10:03:15;;;;;;;77.85;38.25;;;-0.10;96.20;;;;;;4964129;28;20047;-79
2022/01/13 10:06:17;;;;;;;85.55;36.83;;;0.00;98.60;;;;;;4966073;28;20042;-79
2022/01/13 10:08:47;;;;;;;78.18;37.33;;;0.00;99.10;;;;;;4963089;29;20387;-79
2022/01/13 10:11:33;;;;;;;75.00;35.92;;;0.00;99.00;;;;;;4964022;29;20118;-80
2022/01/13 10:17:05;;;;;;;77.45;34.72;;;-0.10;98.90;;;;;;4963693;28;20047;-80
2022/01/13 10:19:44;;;;;;;72.75;33.92;;;-0.20;99.90;;;;;;4966435;28;20027;-80
2022/01/13 10:22:14;;;;;;;70.95;36.83;;;-0.20;99.90;;;;;;4975541;28;20008;-80
2022/01/13 10:24:43;;;;;;;65.68;32.95;;;-0.20;99.90;;;;;;4969601;28;20480;-80
2022/01/13 10:27:19;;;;;;;69.07;34.75;;;-0.20;99.90;;;;;;4963289;28;20091;-80
2022/01/13 10:29:57;;;;;;;78.40;34.63;;;-0.10;99.90;;;;;;4964142;29;20035;-80
2022/01/13 10:32:26;;;;;;;70.72;35.42;;;-0.10;99.90;;;;;;4964499;29;20132;-80
2022/01/13 10:35:03;;;;;;;75.78;37.50;;;-0.10;99.90;;;;;;4962878;29;20892;-81
2022/01/13 10:37:35;;;;;;;70.45;35.17;;;-0.10;99.90;;;;;;4964372;29;20120;-80
2022/01/13 10:40:01;;;;;;;71.50;33.55;;;-0.20;99.90;;;;;;4964166;29;20023;-79
2022/01/13 10:45:20;;;;;;;59.33;30.85;;;-0.10;99.90;;;;;;4960993;29;20034;-79
2022/01/13 10:48:13;;;;;;;64.72;29.58;;;-0.10;99.90;;;;;;4947442;29;20103;-79
2022/01/13 10:51:04;;;;;;;69.38;31.40;;;0.00;99.90;;;;;;4945157;29;20538;-80
2022/01/13 10:53:38;;;;;;;64.35;31.70;;;0.10;99.90;;;;;;4963865;29;20110;-79
2022/01/13 10:56:09;;;;;;;84.68;36.78;;;0.20;99.90;;;;;;4962977;29;20111;-80
2022/01/13 10:58:41;;;;;;;87.13;38.65;;;0.30;99.90;;;;;;4965025;29;20030;-80
2022/01/13 11:01:10;;;;;;;73.85;35.22;;;0.50;99.90;;;;;;4964310;29;20038;-80
2022/01/13 11:03:40;;;;;;;84.38;36.88;;;0.50;99.90;;;;;;4962631;29;20148;-80
2022/01/13 11:06:08;;;;;;;79.72;36.85;;;0.50;99.90;;;;;;4964628;29;20027;-80
2022/01/13 11:08:45;;;;;;;74.25;34.63;;;0.50;99.90;;;;;;4964284;29;20535;-79
2022/01/13 11:11:20;;;;;;;65.85;32.03;;;0.50;99.90;;;;;;4962332;29;20028;-79
2022/01/13 11:14:10;;;;;;;63.00;32.08;;;0.50;99.90;;;;;;4961465;28;20023;-80
2022/01/13 11:16:38;;;;;;;61.53;31.05;;;0.50;99.90;;;;;;4964398;29;20031;-80
2022/01/13 11:19:05;;;;;;;76.43;35.30;;;0.50;99.90;;;;;;4963544;28;20034;-81
2022/01/13 11:21:32;;;;;;;69.03;34.00;;;0.50;99.90;;;;;;4962379;29;20042;-80
2022/01/13 11:24:00;;;;;;;75.32;37.83;;;0.50;99.90;;;;;;4946085;29;20031;-80
2022/01/13 11:26:27;;;;;;;90.63;39.42;;;0.50;99.90;;;;;;4962238;29;20027;-79
2022/01/13 11:28:57;;;;;;;79.45;38.15;;;0.50;99.90;;;;;;4961707;28;20031;-79
2022/01/13 11:31:23;;;;;;;76.35;38.75;;;0.50;99.90;;;;;;4961711;29;20180;-80
2022/01/13 11:33:50;;;;;;;;;;;0.40;99.90;;;;;;4962632;28;20050;-79
2022/01/13 11:36:17;;;;;;;79.28;36.45;;;0.40;99.90;;;;;;4945594;29;19914;-79
2022/01/13 11:38:55;;;;;;;73.53;36.17;;;0.40;99.90;;;;;;4961915;29;20855;-79
2022/01/13 11:41:21;;;;;;;75.95;35.97;;;0.50;99.90;;;;;;4961470;29;20038;-80
2022/01/13 11:43:46;;;;;;;;;;;0.50;99.90;;;;;;4947913;29;20027;-80
2022/01/13 11:46:21;;;;;;;66.88;33.75;;;0.50;99.90;;;;;;4961609;29;20274;-78
2022/01/13 11:48:59;;;;;;;67.68;34.40;;;0.60;99.90;;;;;;4961089;29;20130;-80
2022/01/13 11:51:25;;;;;;;78.28;35.83;;;0.70;99.90;;;;;;4963744;29;20033;-79
2022/01/13 11:53:55;;;;;;;;;;;0.80;99.90;;;;;;4965780;29;20291;-80
2022/01/13 11:56:22;;;;;;;69.53;33.65;;;0.80;99.90;;;;;;4962956;29;20476;-80
2022/01/13 11:58:48;;;;;;;66.82;34.47;;;0.70;99.90;;;;;;4972146;29;20031;-80
2022/01/13 12:01:19;;;;;;;;;;;0.80;99.90;;;;;;4967763;28;20027;-80
2022/01/13 12:04:06;;;;;;;72.05;34.30;;;0.90;99.90;;;;;;4959157;29;20005;-80
2022/01/13 12:06:36;;;;;;;73.83;34.57;;;1.00;99.90;;;;;;4959536;29;20070;-79
2022/01/13 12:09:23;;;;;;;65.88;33.15;;;1.10;99.90;;;;;;4959465;29;20027;-80
2022/01/13 12:11:56;;;;;;;71.80;34.50;;;1.20;99.90;;;;;;4939622;29;20043;-79
2022/01/13 12:14:28;;;;;;;77.13;38.47;;;1.30;99.90;;;;;;4957655;29;20164;-79
2022/01/13 12:17:12;;;;;;;73.70;36.70;;;1.50;99.90;;;;;;4942163;29;20126;-80
2022/01/13 12:19:48;;;;;;;84.55;38.55;;;1.50;99.90;;;;;;4958998;29;20031;-79
2022/01/13 12:22:33;;;;;;;75.28;35.03;;;1.70;99.90;;;;;;4958291;29;20023;-80
2022/01/13 12:25:02;;;;;;;63.58;33.00;;;1.90;99.90;;;;;;4943460;29;20134;-80
2022/01/13 12:27:40;;;;;;;70.90;35.20;;;2.00;99.90;;;;;;4959901;29;20024;-79
2022/01/13 12:30:11;;;;;;;77.82;36.65;;;2.20;99.90;;;;;;4941801;28;20046;-80
2022/01/13 12:32:47;;;;;;;96.78;43.40;;;2.30;99.90;;;;;;4942984;29;20027;-79
2022/01/13 12:35:29;;;;;;;61.72;35.22;;;2.40;99.90;;;;;;4958381;29;20031;-79
2022/01/13 12:38:21;;;;;;;69.45;35.53;;;2.50;99.90;;;;;;4958966;28;20508;-79
2022/01/13 12:40:54;;;;;;;58.20;29.55;;;2.50;99.90;;;;;;4957807;29;20456;-79
2022/01/13 12:46:16;;;;;;;57.95;28.05;;;2.60;99.90;;;;;;4956500;29;20500;-79
2022/01/13 12:48:45;;;;;;;55.33;28.70;;;2.70;99.90;;;;;;4958521;29;20031;-80
2022/01/13 12:51:19;;;;;;;54.08;27.80;;;2.80;99.90;;;;;;4958979;29;20121;-79
2022/01/13 12:53:46;;;;;;;53.42;28.63;;;3.10;99.90;;;;;;4958223;28;20027;-80
2022/01/13 12:56:11;;;;;;;55.45;27.17;;;3.10;99.90;;;;;;4958969;29;20105;-79
2022/01/13 12:58:49;;;;;;;57.45;26.70;;;3.20;99.90;;;;;;4941537;29;20476;-79
2022/01/13 13:01:25;;;;;;;57.45;27.80;;;3.20;99.90;;;;;;4958899;29;20043;-79
2022/01/13 13:04:07;;;;;;;51.03;25.75;;;3.20;99.90;;;;;;4957786;29;20080;-79
2022/01/13 13:06:35;;;;;;;46.90;24.45;;;3.10;99.90;;;;;;4956741;29;20035;-79
2022/01/13 13:09:05;;;;;;;48.17;25.90;;;3.00;99.90;;;;;;4958590;29;20027;-79
2022/01/13 13:11:31;;;;;;;55.25;25.55;;;3.10;99.90;;;;;;4959093;28;20063;-79
2022/01/13 13:13:57;;;;;;;;;;;3.00;99.90;;;;;;4959388;29;20062;-81
2022/01/13 13:16:23;;;;;;;46.92;24.30;;;2.90;99.90;;;;;;4960508;29;19929;-79
2022/01/13 13:18:49;;;;;;;49.67;24.90;;;2.80;99.90;;;;;;4961866;29;20039;-80
2022/01/13 13:21:15;;;;;;;;;;;2.70;99.90;;;;;;4961595;29;20058;-79